Time;durP1;ratioP1;P1;durP2;ratioP2;P2;SDS_P1;SDS_P2;PMS_P1;PMS_P2;Temp;Humidity;BMP_temperature;BMP_pressure;BME280_temperature;BME280_humidity;BME280_pressure;Samples;Min_cycle;Max_cycle;Signal;HPM_P1;HPM_P2
2022/06/25 00:01:29;;;;;;;1.15;0.82;;;18.30;99.90;;;;;;4943145;29;20440;-91
2022/06/25 00:03:55;;;;;;;0.88;0.57;;;18.30;99.90;;;;;;4942996;29;20019;-90
2022/06/25 00:06:21;;;;;;;0.30;0.30;;;18.30;99.90;;;;;;4942830;29;20031;-91
2022/06/25 00:08:48;;;;;;;0.20;0.20;;;18.30;99.90;;;;;;4942878;29;20031;-90
2022/06/25 00:14:07;;;;;;;0.17;0.17;;;18.30;99.90;;;;;;4960338;29;20083;-92
2022/06/25 00:16:33;;;;;;;0.30;0.30;;;18.40;99.90;;;;;;4942629;29;20074;-91
2022/06/25 00:18:58;;;;;;;1.17;1.08;;;18.40;99.90;;;;;;4942723;29;20070;-90
2022/06/25 00:21:24;;;;;;;0.85;0.57;;;18.30;99.90;;;;;;4942692;29;20475;-91
2022/06/25 00:23:50;;;;;;;0.68;0.40;;;18.30;99.90;;;;;;4942607;29;20059;-91
2022/06/25 00:26:15;;;;;;;0.13;0.13;;;18.30;99.90;;;;;;4942290;29;20031;-92
2022/06/25 00:28:41;;;;;;;0.40;0.40;;;18.30;99.90;;;;;;4942594;29;20031;-90
2022/06/25 00:31:07;;;;;;;0.03;0.03;;;18.30;99.90;;;;;;4959794;29;20501;-90
2022/06/25 00:33:32;;;;;;;0.20;0.20;;;18.30;99.90;;;;;;4942861;29;20027;-91
2022/06/25 00:35:58;;;;;;;1.67;0.98;;;18.30;99.90;;;;;;4942506;29;20035;-90
2022/06/25 00:38:24;;;;;;;0.30;0.30;;;18.30;99.90;;;;;;4959579;29;20490;-90
2022/06/25 00:40:50;;;;;;;0.17;0.17;;;18.30;99.90;;;;;;4942457;29;20024;-90
2022/06/25 00:43:16;;;;;;;0.70;0.10;;;18.20;99.90;;;;;;4942453;29;20023;-91
2022/06/25 00:45:45;;;;;;;0.65;0.28;;;18.20;99.90;;;;;;4942327;29;20386;-90
2022/06/25 00:48:10;;;;;;;1.55;1.08;;;18.20;99.90;;;;;;4941992;29;20098;-90
2022/06/25 00:50:37;;;;;;;0.68;0.65;;;18.20;99.90;;;;;;4942310;29;20474;-91
2022/06/25 00:53:04;;;;;;;0.35;0.35;;;18.30;99.90;;;;;;4942170;29;20031;-91
2022/06/25 00:55:31;;;;;;;1.13;0.57;;;18.20;99.90;;;;;;4959058;29;20386;-90
2022/06/25 00:58:00;;;;;;;0.32;0.32;;;18.30;99.90;;;;;;4942177;29;20027;-91
2022/06/25 01:00:26;;;;;;;0.38;0.38;;;18.30;99.90;;;;;;4959014;29;20470;-90
2022/06/25 01:02:52;;;;;;;0.35;0.35;;;18.20;99.90;;;;;;4958979;29;20085;-90
2022/06/25 01:05:17;;;;;;;0.20;0.20;;;18.20;99.90;;;;;;4940988;29;20023;-90
2022/06/25 01:07:46;;;;;;;0.70;0.70;;;18.30;99.90;;;;;;4941855;29;20027;-90
2022/06/25 01:10:13;;;;;;;0.22;0.22;;;18.20;99.90;;;;;;4942064;29;20047;-90
2022/06/25 01:12:39;;;;;;;0.00;0.00;;;18.30;99.90;;;;;;4941982;29;20054;-92
2022/06/25 01:15:13;;;;;;;0.08;0.08;;;18.30;99.90;;;;;;4958765;29;20027;-90
2022/06/25 01:17:46;;;;;;;0.13;0.13;;;18.30;99.90;;;;;;4941444;29;20082;-91
2022/06/25 01:20:14;;;;;;;0.45;0.45;;;18.30;99.90;;;;;;4958821;29;20035;-91
2022/06/25 01:22:40;;;;;;;0.20;0.20;;;18.30;99.90;;;;;;4941452;29;20019;-91
2022/06/25 01:25:12;;;;;;;0.20;0.20;;;18.30;99.90;;;;;;4958532;29;20115;-91
2022/06/25 01:27:38;;;;;;;0.73;0.73;;;18.30;99.90;;;;;;4941479;29;20110;-91
2022/06/25 01:30:07;;;;;;;0.30;0.30;;;18.30;99.90;;;;;;4941200;29;20059;-91
2022/06/25 01:32:33;;;;;;;0.30;0.30;;;18.30;99.90;;;;;;4958612;29;20031;-91
2022/06/25 01:34:58;;;;;;;0.32;0.32;;;18.30;99.90;;;;;;4958197;29;20031;-91
2022/06/25 01:37:24;;;;;;;0.82;0.82;;;18.20;99.90;;;;;;4958349;29;20051;-91
2022/06/25 01:39:54;;;;;;;0.45;0.45;;;18.20;99.90;;;;;;4941321;29;20024;-91
2022/06/25 01:45:05;;;;;;;0.40;0.40;;;18.30;99.90;;;;;;4958539;29;20038;-94
2022/06/25 01:47:30;;;;;;;0.50;0.50;;;18.20;99.90;;;;;;4941413;29;20500;-91
2022/06/25 01:49:56;;;;;;;0.20;0.20;;;18.20;99.90;;;;;;4958248;29;20114;-91
2022/06/25 01:52:22;;;;;;;3.53;0.68;;;18.20;99.90;;;;;;4941592;29;20028;-91
2022/06/25 01:54:49;;;;;;;0.70;0.70;;;18.10;99.90;;;;;;4958189;29;20638;-89
2022/06/25 01:57:15;;;;;;;1.27;1.17;;;18.10;99.90;;;;;;4958010;29;20024;-89
2022/06/25 01:59:40;;;;;;;1.35;1.02;;;18.10;99.90;;;;;;4940845;29;20019;-89
2022/06/25 02:02:06;;;;;;;0.68;0.60;;;18.00;99.90;;;;;;4941085;29;20023;-90
2022/06/25 02:04:32;;;;;;;0.40;0.40;;;17.90;99.90;;;;;;4940782;29;20027;-89
2022/06/25 02:06:57;;;;;;;0.85;0.82;;;17.90;99.90;;;;;;4940815;29;20095;-88
2022/06/25 02:09:23;;;;;;;0.15;0.15;;;17.90;99.90;;;;;;4940692;29;20466;-89
2022/06/25 02:11:49;;;;;;;1.13;0.85;;;17.80;99.90;;;;;;4940679;29;20106;-90
2022/06/25 02:14:15;;;;;;;0.15;0.13;;;17.80;99.90;;;;;;4940863;29;20027;-90
2022/06/25 02:16:41;;;;;;;0.63;0.60;;;17.80;99.90;;;;;;4940000;29;20050;-90
2022/06/25 02:19:08;;;;;;;0.00;0.00;;;17.80;99.90;;;;;;4940454;29;20034;-89
2022/06/25 02:21:34;;;;;;;1.20;1.10;;;17.80;99.90;;;;;;4940445;29;20074;-89
2022/06/25 02:24:00;;;;;;;0.40;0.40;;;17.80;99.90;;;;;;4940456;29;20027;-90
2022/06/25 02:26:26;;;;;;;0.28;0.28;;;17.80;99.90;;;;;;4940759;29;20031;-91
2022/06/25 02:28:51;;;;;;;0.20;0.20;;;17.80;99.90;;;;;;4940868;29;20422;-88
2022/06/25 02:31:18;;;;;;;0.30;0.30;;;17.70;99.90;;;;;;4940402;29;20478;-90
2022/06/25 02:33:43;;;;;;;0.55;0.55;;;17.70;99.90;;;;;;4940269;29;20023;-90
2022/06/25 02:36:09;;;;;;;0.90;0.85;;;17.70;99.90;;;;;;4957126;29;20030;-91
2022/06/25 02:38:35;;;;;;;0.40;0.40;;;17.70;99.90;;;;;;4940186;29;20023;-91
2022/06/25 02:41:01;;;;;;;0.52;0.52;;;17.70;99.90;;;;;;4940199;29;20024;-89
2022/06/25 02:43:26;;;;;;;0.52;0.52;;;17.70;99.90;;;;;;4940080;29;20435;-88
2022/06/25 02:45:52;;;;;;;0.57;0.57;;;17.70;99.90;;;;;;4940011;29;20397;-90
2022/06/25 02:48:18;;;;;;;0.95;0.90;;;17.70;99.90;;;;;;4939919;29;20125;-90
2022/06/25 02:50:43;;;;;;;1.95;0.73;;;17.70;99.90;;;;;;4940203;29;20118;-92
2022/06/25 02:53:09;;;;;;;0.45;0.45;;;17.70;99.90;;;;;;4939934;29;20031;-91
2022/06/25 03:01:03;;;;;;;0.20;0.20;;;17.70;99.90;;;;;;4956987;29;20039;-90
2022/06/25 03:03:28;;;;;;;0.68;0.68;;;17.70;99.90;;;;;;4940084;29;20035;-90
2022/06/25 03:05:54;;;;;;;0.20;0.20;;;17.70;99.90;;;;;;4940052;29;20027;-90
2022/06/25 03:08:20;;;;;;;0.80;0.80;;;17.70;99.90;;;;;;4939950;29;20058;-90
2022/06/25 03:10:45;;;;;;;0.50;0.50;;;17.70;99.90;;;;;;4939564;29;20055;-91
2022/06/25 03:13:11;;;;;;;0.63;0.63;;;17.70;99.90;;;;;;4939557;29;20034;-91
2022/06/25 03:15:37;;;;;;;2.55;0.90;;;17.70;99.90;;;;;;4940178;29;20038;-91
2022/06/25 03:18:03;;;;;;;0.68;0.68;;;17.70;99.90;;;;;;4939333;29;20487;-91
2022/06/25 03:20:29;;;;;;;0.40;0.28;;;17.80;99.90;;;;;;4939440;29;20027;-91
2022/06/25 03:22:55;;;;;;;0.05;0.05;;;17.90;99.90;;;;;;4939542;29;20034;-90
2022/06/25 03:25:21;;;;;;;0.35;0.35;;;17.90;99.90;;;;;;4939356;29;20110;-90
2022/06/25 03:27:47;;;;;;;0.50;0.50;;;18.00;99.90;;;;;;4938831;29;20126;-90
2022/06/25 03:30:12;;;;;;;0.30;0.30;;;18.00;99.90;;;;;;4939214;29;20121;-90
2022/06/25 03:32:38;;;;;;;0.45;0.45;;;18.10;99.90;;;;;;4939663;29;20093;-89
2022/06/25 03:35:04;;;;;;;0.98;0.52;;;18.20;99.90;;;;;;4939321;29;20114;-90
2022/06/25 03:37:30;;;;;;;0.57;0.40;;;18.20;99.90;;;;;;4939064;29;20031;-90
2022/06/25 03:39:55;;;;;;;6.93;1.20;;;18.30;99.90;;;;;;4939415;29;20035;-89
2022/06/25 03:42:21;;;;;;;0.43;0.40;;;18.30;99.90;;;;;;4956377;29;20030;-90
2022/06/25 03:44:47;;;;;;;0.30;0.30;;;18.40;99.90;;;;;;4956527;29;20045;-90
2022/06/25 03:47:12;;;;;;;0.38;0.38;;;18.40;99.90;;;;;;4939230;29;20023;-90
2022/06/25 03:49:38;;;;;;;0.10;0.10;;;18.50;99.90;;;;;;4939123;29;20027;-90
2022/06/25 03:52:04;;;;;;;0.28;0.28;;;18.50;99.90;;;;;;4938812;29;20023;-90
2022/06/25 03:54:30;;;;;;;0.40;0.40;;;18.50;99.90;;;;;;4938896;29;20035;-88
2022/06/25 03:56:56;;;;;;;0.93;0.93;;;18.50;99.90;;;;;;4956263;29;20035;-89
2022/06/25 03:59:21;;;;;;;0.17;0.10;;;18.40;99.90;;;;;;4938943;29;20028;-90
2022/06/25 04:01:47;;;;;;;0.17;0.17;;;18.40;99.90;;;;;;4956088;29;20055;-89
2022/06/25 04:04:13;;;;;;;0.68;0.68;;;18.50;99.90;;;;;;4939017;29;20027;-90
2022/06/25 04:06:38;;;;;;;0.10;0.10;;;18.50;99.90;;;;;;4938929;29;20038;-89
2022/06/25 04:09:04;;;;;;;0.68;0.68;;;18.50;99.90;;;;;;4956092;29;20058;-90
2022/06/25 04:11:30;;;;;;;0.20;0.20;;;18.50;99.90;;;;;;4938868;29;20434;-90
2022/06/25 04:13:56;;;;;;;1.75;0.63;;;18.60;99.90;;;;;;4938909;29;20035;-90
2022/06/25 04:16:22;;;;;;;0.40;0.40;;;18.60;99.90;;;;;;4938609;29;20060;-88
2022/06/25 04:18:48;;;;;;;1.20;1.15;;;18.70;99.90;;;;;;4956088;29;20047;-89
2022/06/25 04:21:14;;;;;;;0.65;0.65;;;18.80;99.90;;;;;;4939085;29;20046;-90
2022/06/25 04:23:40;;;;;;;0.13;0.10;;;18.80;99.90;;;;;;4938941;29;20023;-90
2022/06/25 04:26:06;;;;;;;0.90;0.85;;;18.90;99.90;;;;;;4955921;29;20026;-91
2022/06/25 04:31:16;;;;;;;0.82;0.50;;;19.10;99.90;;;;;;4956485;29;20062;-91
2022/06/25 04:33:42;;;;;;;0.20;0.20;;;19.10;99.90;;;;;;4956005;29;20023;-91
2022/06/25 04:36:07;;;;;;;0.10;0.10;;;19.10;99.90;;;;;;4938584;29;20500;-90
2022/06/25 04:38:33;;;;;;;0.13;0.13;;;19.30;99.90;;;;;;4939194;28;20027;-90
2022/06/25 04:40:59;;;;;;;0.43;0.43;;;19.40;99.90;;;;;;4959498;29;20377;-91
2022/06/25 04:43:25;;;;;;;0.35;0.35;;;19.60;99.90;;;;;;4942358;29;20031;-91
2022/06/25 04:45:51;;;;;;;1.42;0.65;;;19.70;99.90;;;;;;4942309;29;20078;-91
2022/06/25 04:48:16;;;;;;;0.98;0.57;;;19.70;99.90;;;;;;4942303;29;20031;-91
2022/06/25 04:50:46;;;;;;;0.28;0.28;;;19.80;99.90;;;;;;4941888;29;20462;-91
2022/06/25 04:53:12;;;;;;;0.28;0.20;;;19.80;99.90;;;;;;4942228;29;20031;-90
2022/06/25 04:55:38;;;;;;;0.40;0.40;;;19.90;99.90;;;;;;4959114;29;20074;-89
2022/06/25 04:58:04;;;;;;;0.93;0.93;;;19.90;99.90;;;;;;4942066;29;20073;-90
2022/06/25 05:00:29;;;;;;;0.30;0.30;;;19.80;99.90;;;;;;4942065;29;20024;-89
2022/06/25 05:02:55;;;;;;;0.50;0.47;;;19.90;99.90;;;;;;4942212;29;20496;-88
2022/06/25 05:05:21;;;;;;;0.20;0.20;;;19.90;99.90;;;;;;4942020;29;20084;-89
2022/06/25 05:07:47;;;;;;;0.20;0.20;;;20.10;99.90;;;;;;4941803;29;20036;-92
2022/06/25 05:10:12;;;;;;;0.38;0.32;;;20.10;99.90;;;;;;4941717;29;20467;-92
2022/06/25 05:15:22;;;;;;;0.17;0.17;;;20.40;99.90;;;;;;4959156;29;20090;-92
2022/06/25 05:17:48;;;;;;;0.10;0.10;;;20.60;99.90;;;;;;4941338;29;20130;-92
2022/06/25 05:20:14;;;;;;;0.35;0.35;;;20.80;99.90;;;;;;4941589;29;20031;-92
2022/06/25 05:22:40;;;;;;;0.28;0.28;;;21.00;99.90;;;;;;4941633;29;20027;-92
2022/06/25 05:25:06;;;;;;;0.17;0.17;;;21.00;99.90;;;;;;4941535;29;20493;-92
2022/06/25 05:27:32;;;;;;;0.30;0.20;;;21.10;99.90;;;;;;4958517;29;20134;-91
2022/06/25 05:29:58;;;;;;;0.55;0.55;;;20.90;99.90;;;;;;4941608;29;20458;-92
2022/06/25 05:32:23;;;;;;;0.32;0.32;;;20.70;99.90;;;;;;4941614;29;20027;-91
2022/06/25 05:34:49;;;;;;;0.60;0.60;;;20.90;99.90;;;;;;4941284;29;20027;-92
2022/06/25 05:37:15;;;;;;;0.60;0.60;;;20.90;99.90;;;;;;4941364;29;20493;-91
2022/06/25 05:39:41;;;;;;;0.30;0.30;;;20.90;99.90;;;;;;4941544;29;20023;-93
2022/06/25 05:42:07;;;;;;;0.50;0.20;;;21.00;99.90;;;;;;4941435;29;20020;-91
2022/06/25 05:44:33;;;;;;;0.10;0.10;;;21.00;99.90;;;;;;4940907;29;20020;-92
2022/06/25 05:46:58;;;;;;;0.45;0.45;;;21.00;99.90;;;;;;4940925;29;20038;-92
2022/06/25 05:49:24;;;;;;;0.40;0.40;;;21.20;99.90;;;;;;4940818;29;20471;-93
2022/06/25 05:51:50;;;;;;;0.85;0.85;;;21.30;99.90;;;;;;4940667;29;20024;-92
2022/06/25 05:54:16;;;;;;;0.40;0.40;;;21.40;99.90;;;;;;4940691;29;20073;-92
2022/06/25 05:56:44;;;;;;;0.47;0.47;;;21.10;99.90;;;;;;4941312;29;20065;-92
2022/06/25 05:59:09;;;;;;;0.40;0.30;;;21.40;99.90;;;;;;4940643;29;20024;-91
2022/06/25 06:01:35;;;;;;;0.20;0.20;;;21.40;99.90;;;;;;4940564;29;20489;-91
2022/06/25 06:04:01;;;;;;;0.73;0.70;;;21.10;99.90;;;;;;4957704;29;20106;-90
2022/06/25 06:06:27;;;;;;;0.43;0.43;;;21.20;99.90;;;;;;4940719;29;20493;-91
2022/06/25 06:08:53;;;;;;;0.52;0.52;;;21.30;99.90;;;;;;4957587;29;20041;-89
2022/06/25 06:11:19;;;;;;;0.70;0.70;;;21.30;99.90;;;;;;4925073;29;20031;-90
2022/06/25 06:13:44;;;;;;;0.17;0.17;;;21.40;99.90;;;;;;4940594;29;20031;-90
2022/06/25 06:16:10;;;;;;;0.73;0.73;;;21.70;99.90;;;;;;4957214;29;20031;-91
2022/06/25 06:18:36;;;;;;;0.93;0.93;;;22.00;99.90;;;;;;4957326;29;20051;-92
2022/06/25 06:21:02;;;;;;;0.08;0.08;;;22.20;99.90;;;;;;4957499;29;20466;-88
2022/06/25 06:23:28;;;;;;;0.30;0.30;;;22.00;99.90;;;;;;4924685;29;20043;-90
2022/06/25 06:25:54;;;;;;;0.32;0.32;;;22.10;99.90;;;;;;4940392;29;20082;-88
2022/06/25 06:28:19;;;;;;;0.45;0.45;;;21.90;99.90;;;;;;4940297;29;20082;-90
2022/06/25 06:30:46;;;;;;;0.30;0.30;;;21.80;99.90;;;;;;4940451;29;20434;-90
2022/06/25 06:33:12;;;;;;;0.00;0.00;;;21.90;99.90;;;;;;4940651;29;20445;-90
2022/06/25 06:35:38;;;;;;;0.50;0.50;;;21.70;99.90;;;;;;4939894;29;20033;-89
2022/06/25 06:38:04;;;;;;;2.45;0.55;;;21.80;99.90;;;;;;4924231;29;20023;-90
2022/06/25 06:40:29;;;;;;;0.25;0.25;;;21.70;99.90;;;;;;4957266;29;20111;-90
2022/06/25 06:42:56;;;;;;;0.55;0.55;;;21.60;99.90;;;;;;4940123;29;20023;-91
2022/06/25 06:45:22;;;;;;;0.50;0.45;;;21.50;99.90;;;;;;4924365;29;20035;-89
2022/06/25 06:47:49;;;;;;;0.30;0.30;;;21.30;99.90;;;;;;4940061;29;20023;-90
2022/06/25 06:50:14;;;;;;;0.40;0.35;;;21.50;99.90;;;;;;4939882;29;20034;-90
2022/06/25 06:52:40;;;;;;;1.00;1.00;;;21.40;99.90;;;;;;4940085;29;20034;-89
2022/06/25 06:55:06;;;;;;;2.80;0.55;;;21.20;99.90;;;;;;4939566;29;20027;-90
2022/06/25 06:57:34;;;;;;;0.40;0.40;;;21.20;99.90;;;;;;4939441;29;20023;-91
2022/06/25 07:00:01;;;;;;;0.68;0.68;;;21.20;99.90;;;;;;4940127;29;20035;-89
2022/06/25 07:02:27;;;;;;;0.38;0.38;;;21.40;99.90;;;;;;4938827;29;20086;-90
2022/06/25 07:04:53;;;;;;;0.28;0.28;;;21.30;99.90;;;;;;4939412;29;20438;-89
2022/06/25 07:07:19;;;;;;;0.75;0.75;;;21.30;99.90;;;;;;4939837;29;20078;-90
2022/06/25 07:09:45;;;;;;;0.57;0.57;;;21.40;99.90;;;;;;4939815;29;20031;-91
2022/06/25 07:12:12;;;;;;;0.38;0.30;;;21.50;99.90;;;;;;4924295;29;20432;-91
2022/06/25 07:14:40;;;;;;;0.05;0.05;;;21.60;99.90;;;;;;4956691;29;20176;-88
2022/06/25 07:17:07;;;;;;;0.75;0.75;;;21.50;99.90;;;;;;4939253;29;20047;-91
2022/06/25 07:19:33;;;;;;;0.40;0.40;;;21.80;99.90;;;;;;4939291;29;20031;-90
2022/06/25 07:21:59;;;;;;;0.10;0.10;;;22.30;99.90;;;;;;4923648;29;20550;-92
2022/06/25 07:24:25;;;;;;;0.00;0.00;;;22.30;99.90;;;;;;4939380;29;20030;-92
2022/06/25 07:26:51;;;;;;;0.43;0.22;;;22.60;99.90;;;;;;4939674;29;20059;-91
2022/06/25 07:29:17;;;;;;;0.55;0.55;;;23.00;99.90;;;;;;4939252;29;20073;-90
2022/06/25 07:31:43;;;;;;;0.98;0.90;;;23.30;99.90;;;;;;4939542;29;20069;-88
2022/06/25 07:34:09;;;;;;;0.20;0.20;;;23.40;99.90;;;;;;4939038;29;20398;-88
2022/06/25 07:36:34;;;;;;;0.75;0.73;;;23.10;99.60;;;;;;4939456;29;20372;-87
2022/06/25 07:39:00;;;;;;;0.30;0.30;;;23.00;99.70;;;;;;4939405;29;20031;-89
2022/06/25 07:41:27;;;;;;;0.95;0.10;;;23.00;99.90;;;;;;4923156;29;20142;-87
2022/06/25 07:43:53;;;;;;;0.50;0.50;;;23.00;99.90;;;;;;4939197;29;20023;-88
2022/06/25 07:46:20;;;;;;;0.43;0.43;;;23.10;99.90;;;;;;4939040;29;20397;-89
2022/06/25 07:48:46;;;;;;;0.55;0.55;;;22.80;99.60;;;;;;4939136;29;20117;-89
2022/06/25 07:53:56;;;;;;;0.10;0.10;;;23.10;99.90;;;;;;4941912;29;20046;-89
2022/06/25 07:56:22;;;;;;;0.43;0.43;;;23.30;99.90;;;;;;4922911;29;20035;-90
2022/06/25 07:58:48;;;;;;;0.85;0.85;;;23.30;99.90;;;;;;4938903;29;20055;-91
2022/06/25 08:01:14;;;;;;;0.73;0.73;;;23.10;99.40;;;;;;4923574;29;20031;-90
2022/06/25 08:03:40;;;;;;;0.47;0.47;;;23.10;99.90;;;;;;4939207;29;20062;-91
2022/06/25 08:06:05;;;;;;;0.65;0.65;;;23.00;99.70;;;;;;4939006;29;20123;-88
2022/06/25 08:08:31;;;;;;;1.40;1.05;;;23.10;99.90;;;;;;4938942;29;20055;-91
2022/06/25 08:10:57;;;;;;;0.20;0.20;;;23.20;99.90;;;;;;4939021;29;20027;-91
2022/06/25 08:13:23;;;;;;;0.38;0.38;;;23.30;99.30;;;;;;4939035;28;20035;-91
2022/06/25 08:15:51;;;;;;;1.38;0.88;;;23.20;99.90;;;;;;4942621;29;20035;-88
2022/06/25 08:18:17;;;;;;;0.73;0.73;;;23.40;99.20;;;;;;4942223;29;20094;-90
2022/06/25 08:20:43;;;;;;;0.30;0.30;;;23.50;99.50;;;;;;4959588;29;20034;-91
2022/06/25 08:23:10;;;;;;;0.30;0.30;;;23.60;99.50;;;;;;4942547;29;20024;-92
2022/06/25 08:25:36;;;;;;;0.57;0.57;;;23.80;98.70;;;;;;4942817;29;20497;-89
2022/06/25 08:28:02;;;;;;;0.30;0.30;;;24.00;98.90;;;;;;4942192;29;20027;-91
2022/06/25 08:30:28;;;;;;;0.75;0.50;;;24.00;97.30;;;;;;4959658;29;20474;-89
2022/06/25 08:32:55;;;;;;;0.15;0.15;;;23.90;97.40;;;;;;4942223;29;20122;-91
2022/06/25 08:35:21;;;;;;;0.45;0.45;;;23.80;98.80;;;;;;4926714;29;20035;-91
2022/06/25 08:37:48;;;;;;;0.25;0.25;;;23.90;98.50;;;;;;4941888;29;20023;-90
2022/06/25 08:40:18;;;;;;;0.40;0.40;;;24.00;97.50;;;;;;4942624;29;20382;-90
2022/06/25 08:42:44;;;;;;;;;;;24.10;97.30;;;;;;4960028;29;20082;-92
2022/06/25 08:45:10;;;;;;;0.70;0.30;;;24.10;98.50;;;;;;4942116;29;19906;-89
2022/06/25 08:47:45;;;;;;;0.15;0.15;;;24.00;97.70;;;;;;4959700;29;20027;-91
2022/06/25 08:50:14;;;;;;;0.30;0.30;;;24.30;97.80;;;;;;4922732;29;20031;-91
2022/06/25 08:52:43;;;;;;;;;;;24.40;96.80;;;;;;4959674;29;20038;-91
2022/06/25 08:55:11;;;;;;;0.47;0.47;;;24.20;97.20;;;;;;4942071;29;19911;-89
2022/06/25 08:57:39;;;;;;;0.15;0.15;;;24.40;98.00;;;;;;4941863;29;20114;-89
2022/06/25 09:00:05;;;;;;;0.10;0.10;;;24.50;97.30;;;;;;4942070;29;20467;-90
2022/06/25 09:02:31;;;;;;;1.05;1.05;;;24.50;97.50;;;;;;4958610;29;20027;-90
2022/06/25 09:04:58;;;;;;;0.15;0.15;;;24.40;97.20;;;;;;4958939;29;20030;-91
2022/06/25 09:07:23;;;;;;;0.35;0.35;;;24.50;97.20;;;;;;4941884;29;20028;-93
2022/06/25 09:09:50;;;;;;;0.80;0.80;;;24.40;97.00;;;;;;4959055;29;20027;-92
2022/06/25 09:12:17;;;;;;;0.22;0.22;;;24.60;97.20;;;;;;4910503;29;20031;-92
2022/06/25 09:14:43;;;;;;;0.15;0.15;;;24.70;97.70;;;;;;4941375;29;20475;-92
2022/06/25 09:17:14;;;;;;;0.60;0.60;;;24.60;97.50;;;;;;4941364;29;20058;-92
2022/06/25 09:19:49;;;;;;;0.40;0.40;;;24.80;98.10;;;;;;4941706;29;20024;-91
2022/06/25 09:22:22;;;;;;;1.00;0.43;;;24.70;96.60;;;;;;4941915;29;20043;-90
2022/06/25 09:24:58;;;;;;;0.52;0.52;;;24.50;97.00;;;;;;4958738;28;20486;-90
2022/06/25 09:27:33;;;;;;;0.50;0.50;;;24.50;96.50;;;;;;4941387;29;20513;-91
2022/06/25 09:30:10;;;;;;;0.10;0.10;;;24.50;96.30;;;;;;4958435;29;20034;-91
2022/06/25 09:32:46;;;;;;;0.30;0.25;;;24.60;96.90;;;;;;4941488;29;20419;-89
2022/06/25 09:35:13;;;;;;;0.35;0.35;;;24.50;95.20;;;;;;4941652;29;20053;-91
2022/06/25 09:37:40;;;;;;;0.20;0.20;;;24.50;95.80;;;;;;4941434;29;20023;-92
2022/06/25 09:40:07;;;;;;;0.40;0.40;;;24.50;94.90;;;;;;4941396;29;20027;-92
2022/06/25 09:42:37;;;;;;;0.00;0.00;;;24.40;95.20;;;;;;4958694;29;20086;-93
2022/06/25 09:45:11;;;;;;;0.30;0.30;;;24.50;96.10;;;;;;4941745;29;20066;-92
2022/06/25 09:47:43;;;;;;;0.10;0.10;;;24.60;95.20;;;;;;4925994;29;20055;-92
2022/06/25 09:50:18;;;;;;;0.20;0.20;;;24.70;95.20;;;;;;4941733;29;20038;-92
2022/06/25 09:52:55;;;;;;;0.43;0.43;;;24.60;95.50;;;;;;4941711;29;20050;-93
2022/06/25 09:55:26;;;;;;;0.52;0.52;;;24.50;94.40;;;;;;4940597;29;20031;-91
2022/06/25 09:57:53;;;;;;;0.15;0.15;;;24.40;94.50;;;;;;4941078;29;20061;-90
2022/06/25 10:00:21;;;;;;;0.20;0.20;;;24.30;95.30;;;;;;4925228;29;20457;-90
2022/06/25 10:02:49;;;;;;;0.32;0.32;;;24.50;94.10;;;;;;4940759;29;20078;-90
2022/06/25 10:05:40;;;;;;;0.22;0.22;;;24.60;94.40;;;;;;4940672;29;20035;-90
2022/06/25 10:08:10;;;;;;;0.10;0.10;;;25.00;93.60;;;;;;4940496;29;20062;-91
2022/06/25 10:10:43;;;;;;;0.20;0.20;;;25.20;93.60;;;;;;4940850;29;20493;-90
2022/06/25 10:13:09;;;;;;;0.38;0.38;;;25.40;92.70;;;;;;4940902;29;20031;-90
2022/06/25 10:15:35;;;;;;;0.15;0.13;;;25.80;92.20;;;;;;4940317;29;20514;-91
2022/06/25 10:18:04;;;;;;;0.20;0.20;;;26.00;92.20;;;;;;4957450;29;20047;-90
2022/06/25 10:20:31;;;;;;;0.28;0.28;;;26.20;90.00;;;;;;4940193;29;20061;-91
2022/06/25 10:22:59;;;;;;;0.35;0.35;;;26.30;90.00;;;;;;4940770;29;20026;-91
2022/06/25 10:25:27;;;;;;;0.28;0.28;;;26.40;90.60;;;;;;4940496;29;20027;-92
2022/06/25 10:28:17;;;;;;;0.22;0.22;;;26.50;90.50;;;;;;4940462;29;20086;-92
2022/06/25 10:30:46;;;;;;;0.20;0.20;;;26.70;90.00;;;;;;4924851;29;20035;-91
2022/06/25 10:33:16;;;;;;;0.10;0.10;;;26.70;89.80;;;;;;4940258;29;20078;-91
2022/06/25 10:35:42;;;;;;;0.77;0.50;;;26.60;87.10;;;;;;4939961;29;20478;-92
2022/06/25 10:38:12;;;;;;;0.08;0.08;;;26.40;86.70;;;;;;4940188;29;20039;-91
2022/06/25 10:40:58;;;;;;;0.73;0.65;;;26.10;90.10;;;;;;4940092;29;20038;-91
2022/06/25 10:43:42;;;;;;;0.57;0.57;;;25.90;89.00;;;;;;4940241;29;20030;-92
2022/06/25 10:46:28;;;;;;;0.13;0.00;;;25.70;90.10;;;;;;4940154;29;20367;-92
2022/06/25 10:49:03;;;;;;;0.47;0.28;;;25.80;90.80;;;;;;4957027;29;20031;-92
2022/06/25 10:51:32;;;;;;;0.03;0.03;;;25.50;91.20;;;;;;4956980;29;20035;-90
2022/06/25 10:54:03;;;;;;;0.68;0.68;;;25.70;91.40;;;;;;4940080;29;20024;-91
2022/06/25 10:56:44;;;;;;;0.50;0.50;;;26.00;90.40;;;;;;4924208;29;20043;-89
2022/06/25 10:59:14;;;;;;;0.50;0.50;;;26.30;88.40;;;;;;4939828;29;20119;-91
2022/06/25 11:01:39;;;;;;;0.17;0.17;;;26.60;89.00;;;;;;4939708;29;20023;-91
2022/06/25 11:04:07;;;;;;;0.55;0.55;;;26.40;86.60;;;;;;4939876;29;20050;-91
2022/06/25 11:06:38;;;;;;;0.05;0.05;;;26.50;88.20;;;;;;4940051;29;20398;-91
2022/06/25 11:09:17;;;;;;;0.10;0.10;;;26.60;87.10;;;;;;4938449;29;20027;-92
2022/06/25 11:11:48;;;;;;;0.10;0.10;;;26.60;88.70;;;;;;4939683;29;20478;-91
2022/06/25 11:14:22;;;;;;;0.68;0.68;;;26.60;87.50;;;;;;4939227;29;20031;-91
2022/06/25 11:16:49;;;;;;;0.10;0.10;;;26.20;86.30;;;;;;4936457;29;20067;-91
2022/06/25 11:19:15;;;;;;;1.85;0.57;;;25.90;87.20;;;;;;4939592;29;20031;-91
2022/06/25 11:21:46;;;;;;;0.38;0.30;;;25.60;88.20;;;;;;4939818;29;20054;-91
2022/06/25 11:24:24;;;;;;;0.10;0.10;;;25.60;89.50;;;;;;4939585;29;20470;-90
2022/06/25 11:29:52;;;;;;;;;;;25.40;91.50;;;;;;4957327;29;20086;-90
2022/06/25 11:32:26;;;;;;;0.70;0.47;;;25.40;90.50;;;;;;4936228;29;19949;-90
2022/06/25 11:34:52;;;;;;;7.32;0.90;;;25.60;91.40;;;;;;4939458;29;20031;-94
2022/06/25 11:37:19;;;;;;;0.00;0.00;;;25.60;91.50;;;;;;4939157;29;20130;-94
2022/06/25 11:39:46;;;;;;;0.20;0.20;;;25.70;91.80;;;;;;4939348;29;20113;-94
2022/06/25 11:42:13;;;;;;;2.50;0.52;;;25.80;90.00;;;;;;4939611;29;20023;-93
2022/06/25 11:44:55;;;;;;;0.20;0.20;;;25.80;86.10;;;;;;4923593;29;20155;-93
2022/06/25 11:47:26;;;;;;;0.40;0.35;;;26.20;89.00;;;;;;4939142;29;20019;-92
2022/06/25 11:49:52;;;;;;;0.00;0.00;;;26.80;90.10;;;;;;4938584;29;20062;-95
2022/06/25 11:52:19;;;;;;;0.20;0.20;;;27.50;84.00;;;;;;4938908;29;20050;-93
2022/06/25 11:54:47;;;;;;;0.30;0.30;;;28.40;81.40;;;;;;4956334;29;20027;-92
2022/06/25 11:57:17;;;;;;;0.32;0.32;;;28.70;77.60;;;;;;4939006;29;20043;-95
2022/06/25 11:59:43;;;;;;;0.00;0.00;;;29.40;75.00;;;;;;4939290;29;20023;-94
2022/06/25 12:02:11;;;;;;;0.22;0.10;;;29.50;75.90;;;;;;4939210;29;20489;-94
2022/06/25 12:04:45;;;;;;;0.00;0.00;;;29.70;75.40;;;;;;4956172;29;20019;-93
2022/06/25 12:07:26;;;;;;;0.00;0.00;;;30.20;72.40;;;;;;4939144;29;20127;-94
2022/06/25 12:09:58;;;;;;;0.00;0.00;;;31.00;72.40;;;;;;4956009;29;20035;-93
2022/06/25 12:12:25;;;;;;;0.20;0.20;;;31.00;71.10;;;;;;4955799;29;20038;-94
2022/06/25 12:14:54;;;;;;;0.65;0.65;;;31.70;67.10;;;;;;4923336;29;20127;-95
2022/06/25 12:17:20;;;;;;;0.20;0.20;;;31.70;65.20;;;;;;4938916;29;20139;-93
2022/06/25 12:19:54;;;;;;;1.42;0.40;;;31.80;65.20;;;;;;4956547;29;20442;-95
2022/06/25 12:22:22;;;;;;;0.10;0.10;;;31.50;67.10;;;;;;4938978;29;20095;-94
2022/06/25 12:24:50;;;;;;;0.10;0.10;;;31.20;67.40;;;;;;4956724;29;20047;-93
2022/06/25 12:27:16;;;;;;;0.03;0.03;;;30.80;66.40;;;;;;4938892;29;20037;-94
2022/06/25 12:29:47;;;;;;;0.35;0.35;;;30.90;67.30;;;;;;4939208;29;20118;-94
2022/06/25 12:32:13;;;;;;;0.30;0.30;;;31.50;68.60;;;;;;4939417;29;20460;-94
2022/06/25 12:34:49;;;;;;;0.43;0.40;;;31.70;64.50;;;;;;4938529;29;20066;-94
2022/06/25 12:37:29;;;;;;;0.17;0.17;;;32.30;65.50;;;;;;4923224;29;20078;-94
2022/06/25 12:39:59;;;;;;;0.03;0.03;;;32.80;63.10;;;;;;4939024;29;20099;-93
2022/06/25 12:42:26;;;;;;;0.08;0.08;;;33.40;61.70;;;;;;4938844;29;20028;-93
2022/06/25 12:44:53;;;;;;;0.90;0.47;;;33.40;61.80;;;;;;4938449;29;20028;-96
2022/06/25 12:47:19;;;;;;;0.00;0.00;;;33.00;60.10;;;;;;4938671;29;20086;-96
2022/06/25 12:49:53;;;;;;;0.17;0.17;;;32.10;62.00;;;;;;4938652;29;20035;-95
2022/06/25 12:52:37;;;;;;;0.37;0.20;;;30.80;63.00;;;;;;4956479;29;20039;-94
2022/06/25 12:55:04;;;;;;;0.00;0.00;;;28.70;69.10;;;;;;4923118;29;20032;-94
2022/06/25 12:57:37;;;;;;;8.57;0.32;;;27.00;73.40;;;;;;4956885;29;20034;-94
2022/06/25 13:00:25;;;;;;;0.00;0.00;;;25.60;75.30;;;;;;4922943;29;20043;-95
2022/06/25 13:02:51;;;;;;;0.65;0.22;;;25.10;77.70;;;;;;4941569;29;20039;-92
2022/06/25 13:05:18;;;;;;;0.55;0.55;;;24.60;86.80;;;;;;4941821;29;20024;-93
2022/06/25 13:07:44;;;;;;;0.00;0.00;;;23.60;87.00;;;;;;4941872;29;20038;-92
2022/06/25 13:10:11;;;;;;;1.65;1.20;;;23.40;89.40;;;;;;4941566;29;20113;-90
2022/06/25 13:12:38;;;;;;;0.17;0.17;;;22.70;91.70;;;;;;4941775;29;20041;-92